sensor_id;sensor_type;location;lat;lon;timestamp;P1;durP1;ratioP1;P2;durP2;ratioP2
54430;SDS011;40342;52.998;5.862;2023-07-08T00:02:09;4.35;;;2.88;;
54430;SDS011;40342;52.998;5.862;2023-07-08T00:04:36;3.20;;;2.90;;
54430;SDS011;40342;52.998;5.862;2023-07-08T00:07:02;5.90;;;2.90;;
54430;SDS011;40342;52.998;5.862;2023-07-08T00:09:28;5.28;;;3.03;;
54430;SDS011;40342;52.998;5.862;2023-07-08T00:11:55;3.90;;;2.58;;
54430;SDS011;40342;52.998;5.862;2023-07-08T00:14:22;3.28;;;2.90;;
54430;SDS011;40342;52.998;5.862;2023-07-08T00:16:48;5.25;;;2.88;;
54430;SDS011;40342;52.998;5.862;2023-07-08T00:19:14;3.70;;;3.00;;
54430;SDS011;40342;52.998;5.862;2023-07-08T00:21:44;5.05;;;3.90;;
54430;SDS011;40342;52.998;5.862;2023-07-08T00:24:10;3.20;;;2.90;;
54430;SDS011;40342;52.998;5.862;2023-07-08T00:26:36;3.17;;;2.88;;
54430;SDS011;40342;52.998;5.862;2023-07-08T00:29:02;5.25;;;3.22;;
54430;SDS011;40342;52.998;5.862;2023-07-08T00:31:28;3.25;;;2.53;;
54430;SDS011;40342;52.998;5.862;2023-07-08T00:33:57;6.60;;;2.92;;
54430;SDS011;40342;52.998;5.862;2023-07-08T00:36:23;3.97;;;3.13;;
54430;SDS011;40342;52.998;5.862;2023-07-08T00:38:50;4.15;;;3.10;;
54430;SDS011;40342;52.998;5.862;2023-07-08T00:41:18;4.40;;;2.83;;
54430;SDS011;40342;52.998;5.862;2023-07-08T00:51:33;3.17;;;2.78;;
54430;SDS011;40342;52.998;5.862;2023-07-08T00:53:59;3.30;;;3.00;;
54430;SDS011;40342;52.998;5.862;2023-07-08T00:56:26;3.50;;;3.20;;
54430;SDS011;40342;52.998;5.862;2023-07-08T00:58:56;3.65;;;3.08;;
54430;SDS011;40342;52.998;5.862;2023-07-08T01:01:47;5.03;;;2.97;;
54430;SDS011;40342;52.998;5.862;2023-07-08T01:04:15;4.00;;;3.20;;
54430;SDS011;40342;52.998;5.862;2023-07-08T01:06:46;4.93;;;3.08;;
54430;SDS011;40342;52.998;5.862;2023-07-08T01:09:21;3.83;;;3.00;;
54430;SDS011;40342;52.998;5.862;2023-07-08T01:11:49;3.22;;;2.92;;
54430;SDS011;40342;52.998;5.862;2023-07-08T01:14:16;3.60;;;3.28;;
54430;SDS011;40342;52.998;5.862;2023-07-08T01:16:45;3.65;;;3.35;;
54430;SDS011;40342;52.998;5.862;2023-07-08T01:19:13;4.78;;;3.50;;
54430;SDS011;40342;52.998;5.862;2023-07-08T01:22:01;4.22;;;2.80;;
54430;SDS011;40342;52.998;5.862;2023-07-08T01:24:30;3.45;;;3.10;;
54430;SDS011;40342;52.998;5.862;2023-07-08T01:26:58;3.92;;;3.08;;
54430;SDS011;40342;52.998;5.862;2023-07-08T01:29:26;3.63;;;3.28;;
54430;SDS011;40342;52.998;5.862;2023-07-08T01:31:51;5.43;;;3.38;;
54430;SDS011;40342;52.998;5.862;2023-07-08T01:34:20;4.47;;;3.03;;
54430;SDS011;40342;52.998;5.862;2023-07-08T01:36:51;6.18;;;3.65;;
54430;SDS011;40342;52.998;5.862;2023-07-08T01:39:20;4.70;;;3.10;;
54430;SDS011;40342;52.998;5.862;2023-07-08T01:41:47;5.38;;;3.50;;
54430;SDS011;40342;52.998;5.862;2023-07-08T01:44:23;5.78;;;3.20;;
54430;SDS011;40342;52.998;5.862;2023-07-08T01:47:07;4.28;;;3.38;;
54430;SDS011;40342;52.998;5.862;2023-07-08T01:49:37;5.28;;;3.35;;
54430;SDS011;40342;52.998;5.862;2023-07-08T01:52:05;6.25;;;3.00;;
54430;SDS011;40342;52.998;5.862;2023-07-08T01:54:32;6.28;;;3.88;;
54430;SDS011;40342;52.998;5.862;2023-07-08T01:56:58;4.90;;;3.35;;
54430;SDS011;40342;52.998;5.862;2023-07-08T01:59:23;4.97;;;3.28;;
54430;SDS011;40342;52.998;5.862;2023-07-08T02:01:50;5.45;;;3.60;;
54430;SDS011;40342;52.998;5.862;2023-07-08T02:04:19;4.70;;;3.47;;
54430;SDS011;40342;52.998;5.862;2023-07-08T02:06:55;4.13;;;3.30;;
54430;SDS011;40342;52.998;5.862;2023-07-08T02:09:23;3.65;;;3.35;;
54430;SDS011;40342;52.998;5.862;2023-07-08T02:11:50;4.93;;;3.75;;
54430;SDS011;40342;52.998;5.862;2023-07-08T02:14:16;6.40;;;3.50;;
54430;SDS011;40342;52.998;5.862;2023-07-08T02:16:42;4.07;;;3.67;;
54430;SDS011;40342;52.998;5.862;2023-07-08T02:19:07;4.07;;;3.20;;
54430;SDS011;40342;52.998;5.862;2023-07-08T02:21:33;8.25;;;3.70;;
54430;SDS011;40342;52.998;5.862;2023-07-08T02:24:00;4.85;;;3.60;;
54430;SDS011;40342;52.998;5.862;2023-07-08T02:26:25;4.55;;;3.53;;
54430;SDS011;40342;52.998;5.862;2023-07-08T02:28:51;5.25;;;3.42;;
54430;SDS011;40342;52.998;5.862;2023-07-08T02:31:17;5.97;;;4.25;;
54430;SDS011;40342;52.998;5.862;2023-07-08T02:33:43;4.50;;;3.80;;
54430;SDS011;40342;52.998;5.862;2023-07-08T02:36:08;4.10;;;3.70;;
54430;SDS011;40342;52.998;5.862;2023-07-08T02:38:34;5.07;;;3.55;;
54430;SDS011;40342;52.998;5.862;2023-07-08T02:40:59;5.32;;;4.15;;
54430;SDS011;40342;52.998;5.862;2023-07-08T02:43:25;5.50;;;3.60;;
54430;SDS011;40342;52.998;5.862;2023-07-08T02:45:51;5.13;;;3.67;;
54430;SDS011;40342;52.998;5.862;2023-07-08T02:48:20;4.88;;;3.90;;
54430;SDS011;40342;52.998;5.862;2023-07-08T02:50:46;3.80;;;3.35;;
54430;SDS011;40342;52.998;5.862;2023-07-08T02:53:11;5.22;;;3.65;;
54430;SDS011;40342;52.998;5.862;2023-07-08T02:55:40;6.10;;;4.32;;
54430;SDS011;40342;52.998;5.862;2023-07-08T02:58:07;5.60;;;3.60;;
54430;SDS011;40342;52.998;5.862;2023-07-08T03:00:34;5.38;;;3.80;;
54430;SDS011;40342;52.998;5.862;2023-07-08T03:03:02;6.05;;;3.60;;
54430;SDS011;40342;52.998;5.862;2023-07-08T03:05:28;4.68;;;3.72;;
54430;SDS011;40342;52.998;5.862;2023-07-08T03:07:54;4.78;;;4.22;;
54430;SDS011;40342;52.998;5.862;2023-07-08T03:10:19;7.35;;;4.22;;
54430;SDS011;40342;52.998;5.862;2023-07-08T03:12:45;4.93;;;3.60;;
54430;SDS011;40342;52.998;5.862;2023-07-08T03:15:10;4.30;;;3.78;;
54430;SDS011;40342;52.998;5.862;2023-07-08T03:17:36;4.05;;;3.65;;
54430;SDS011;40342;52.998;5.862;2023-07-08T03:20:01;4.80;;;3.55;;
54430;SDS011;40342;52.998;5.862;2023-07-08T03:22:30;8.38;;;3.88;;
54430;SDS011;40342;52.998;5.862;2023-07-08T03:24:56;4.28;;;3.78;;
54430;SDS011;40342;52.998;5.862;2023-07-08T03:27:21;7.88;;;4.30;;
54430;SDS011;40342;52.998;5.862;2023-07-08T03:29:47;5.13;;;3.72;;
54430;SDS011;40342;52.998;5.862;2023-07-08T03:32:12;6.95;;;4.30;;
54430;SDS011;40342;52.998;5.862;2023-07-08T03:34:38;6.55;;;4.32;;
54430;SDS011;40342;52.998;5.862;2023-07-08T03:37:04;5.20;;;3.35;;
54430;SDS011;40342;52.998;5.862;2023-07-08T03:39:30;4.28;;;3.83;;
54430;SDS011;40342;52.998;5.862;2023-07-08T03:41:57;5.13;;;3.95;;
54430;SDS011;40342;52.998;5.862;2023-07-08T03:44:23;5.53;;;3.70;;
54430;SDS011;40342;52.998;5.862;2023-07-08T03:46:49;4.50;;;3.67;;
54430;SDS011;40342;52.998;5.862;2023-07-08T03:49:15;5.03;;;3.40;;
54430;SDS011;40342;52.998;5.862;2023-07-08T03:51:44;6.03;;;3.95;;
54430;SDS011;40342;52.998;5.862;2023-07-08T03:54:10;4.95;;;3.50;;
54430;SDS011;40342;52.998;5.862;2023-07-08T03:56:37;5.35;;;3.75;;
54430;SDS011;40342;52.998;5.862;2023-07-08T03:59:03;5.15;;;3.75;;
54430;SDS011;40342;52.998;5.862;2023-07-08T04:01:29;4.72;;;3.83;;
54430;SDS011;40342;52.998;5.862;2023-07-08T04:03:57;5.13;;;3.78;;
54430;SDS011;40342;52.998;5.862;2023-07-08T04:06:24;8.05;;;4.05;;
54430;SDS011;40342;52.998;5.862;2023-07-08T04:08:50;7.03;;;3.72;;
54430;SDS011;40342;52.998;5.862;2023-07-08T04:11:20;7.32;;;4.03;;
54430;SDS011;40342;52.998;5.862;2023-07-08T04:13:47;5.57;;;3.33;;
54430;SDS011;40342;52.998;5.862;2023-07-08T04:16:16;6.18;;;3.65;;
54430;SDS011;40342;52.998;5.862;2023-07-08T04:18:47;5.32;;;3.78;;
54430;SDS011;40342;52.998;5.862;2023-07-08T04:21:15;4.30;;;3.88;;
54430;SDS011;40342;52.998;5.862;2023-07-08T04:23:41;10.73;;;4.35;;
54430;SDS011;40342;52.998;5.862;2023-07-08T04:26:07;5.00;;;4.13;;
54430;SDS011;40342;52.998;5.862;2023-07-08T04:28:33;5.07;;;3.60;;
54430;SDS011;40342;52.998;5.862;2023-07-08T04:30:59;4.32;;;3.72;;
54430;SDS011;40342;52.998;5.862;2023-07-08T04:33:24;8.43;;;4.03;;
54430;SDS011;40342;52.998;5.862;2023-07-08T04:35:50;6.47;;;4.20;;
54430;SDS011;40342;52.998;5.862;2023-07-08T04:38:20;7.53;;;3.92;;
54430;SDS011;40342;52.998;5.862;2023-07-08T04:40:47;5.07;;;3.65;;
54430;SDS011;40342;52.998;5.862;2023-07-08T04:43:14;5.50;;;4.22;;
54430;SDS011;40342;52.998;5.862;2023-07-08T04:45:40;4.80;;;3.78;;
54430;SDS011;40342;52.998;5.862;2023-07-08T04:48:10;5.53;;;3.95;;
54430;SDS011;40342;52.998;5.862;2023-07-08T04:50:45;4.72;;;3.67;;
54430;SDS011;40342;52.998;5.862;2023-07-08T04:53:12;6.13;;;3.50;;
54430;SDS011;40342;52.998;5.862;2023-07-08T04:55:39;5.15;;;3.80;;
54430;SDS011;40342;52.998;5.862;2023-07-08T04:58:08;5.22;;;3.70;;
54430;SDS011;40342;52.998;5.862;2023-07-08T05:00:34;4.18;;;3.45;;
54430;SDS011;40342;52.998;5.862;2023-07-08T05:03:00;3.90;;;3.55;;
54430;SDS011;40342;52.998;5.862;2023-07-08T05:05:25;5.07;;;4.05;;
54430;SDS011;40342;52.998;5.862;2023-07-08T05:07:51;5.80;;;3.67;;
54430;SDS011;40342;52.998;5.862;2023-07-08T05:10:17;6.07;;;4.13;;
54430;SDS011;40342;52.998;5.862;2023-07-08T05:12:44;4.65;;;3.40;;
54430;SDS011;40342;52.998;5.862;2023-07-08T05:15:10;4.10;;;3.67;;
54430;SDS011;40342;52.998;5.862;2023-07-08T05:17:36;4.13;;;3.65;;
54430;SDS011;40342;52.998;5.862;2023-07-08T05:20:03;4.50;;;3.13;;
54430;SDS011;40342;52.998;5.862;2023-07-08T05:22:29;4.00;;;3.53;;
54430;SDS011;40342;52.998;5.862;2023-07-08T05:24:55;4.10;;;3.17;;
54430;SDS011;40342;52.998;5.862;2023-07-08T05:27:22;3.80;;;3.50;;
54430;SDS011;40342;52.998;5.862;2023-07-08T05:29:48;4.88;;;3.20;;
54430;SDS011;40342;52.998;5.862;2023-07-08T05:32:14;3.53;;;3.20;;
54430;SDS011;40342;52.998;5.862;2023-07-08T05:34:40;3.50;;;3.20;;
54430;SDS011;40342;52.998;5.862;2023-07-08T05:37:06;4.47;;;3.67;;
54430;SDS011;40342;52.998;5.862;2023-07-08T05:39:31;4.57;;;3.50;;
54430;SDS011;40342;52.998;5.862;2023-07-08T05:41:58;3.97;;;3.03;;
54430;SDS011;40342;52.998;5.862;2023-07-08T05:44:24;7.47;;;3.30;;
54430;SDS011;40342;52.998;5.862;2023-07-08T05:46:50;4.45;;;3.08;;
54430;SDS011;40342;52.998;5.862;2023-07-08T05:49:15;4.82;;;3.13;;
54430;SDS011;40342;52.998;5.862;2023-07-08T05:51:43;3.17;;;2.88;;
54430;SDS011;40342;52.998;5.862;2023-07-08T05:54:09;3.47;;;3.10;;
54430;SDS011;40342;52.998;5.862;2023-07-08T05:56:35;3.25;;;2.95;;
54430;SDS011;40342;52.998;5.862;2023-07-08T05:59:00;5.07;;;3.20;;
54430;SDS011;40342;52.998;5.862;2023-07-08T06:01:26;5.28;;;2.80;;
54430;SDS011;40342;52.998;5.862;2023-07-08T06:03:52;3.35;;;3.00;;
54430;SDS011;40342;52.998;5.862;2023-07-08T06:06:17;3.63;;;2.97;;
54430;SDS011;40342;52.998;5.862;2023-07-08T06:08:43;2.97;;;2.60;;
54430;SDS011;40342;52.998;5.862;2023-07-08T06:11:09;4.35;;;2.38;;
54430;SDS011;40342;52.998;5.862;2023-07-08T06:13:34;4.88;;;2.70;;
54430;SDS011;40342;52.998;5.862;2023-07-08T06:16:00;4.28;;;2.70;;
54430;SDS011;40342;52.998;5.862;2023-07-08T06:18:25;3.38;;;3.00;;
54430;SDS011;40342;52.998;5.862;2023-07-08T06:20:52;4.93;;;2.80;;
54430;SDS011;40342;52.998;5.862;2023-07-08T06:23:19;4.75;;;2.90;;
54430;SDS011;40342;52.998;5.862;2023-07-08T06:25:44;2.95;;;2.75;;
54430;SDS011;40342;52.998;5.862;2023-07-08T06:28:10;4.32;;;3.20;;
54430;SDS011;40342;52.998;5.862;2023-07-08T06:30:35;3.22;;;2.83;;
54430;SDS011;40342;52.998;5.862;2023-07-08T06:33:02;3.78;;;3.10;;
54430;SDS011;40342;52.998;5.862;2023-07-08T06:35:28;4.00;;;2.83;;
54430;SDS011;40342;52.998;5.862;2023-07-08T06:37:54;3.75;;;2.70;;
54430;SDS011;40342;52.998;5.862;2023-07-08T06:40:19;4.00;;;2.80;;
54430;SDS011;40342;52.998;5.862;2023-07-08T06:42:45;3.53;;;3.17;;
54430;SDS011;40342;52.998;5.862;2023-07-08T06:45:11;5.70;;;2.80;;
54430;SDS011;40342;52.998;5.862;2023-07-08T06:47:36;2.97;;;2.55;;
54430;SDS011;40342;52.998;5.862;2023-07-08T06:50:02;4.72;;;2.88;;
54430;SDS011;40342;52.998;5.862;2023-07-08T06:52:28;4.25;;;2.67;;
54430;SDS011;40342;52.998;5.862;2023-07-08T06:55:00;2.85;;;2.55;;
54430;SDS011;40342;52.998;5.862;2023-07-08T06:57:27;2.90;;;2.70;;
54430;SDS011;40342;52.998;5.862;2023-07-08T06:59:52;5.22;;;2.90;;
54430;SDS011;40342;52.998;5.862;2023-07-08T07:02:18;3.47;;;2.70;;
54430;SDS011;40342;52.998;5.862;2023-07-08T07:04:44;6.22;;;2.95;;
54430;SDS011;40342;52.998;5.862;2023-07-08T07:07:10;4.28;;;2.50;;
54430;SDS011;40342;52.998;5.862;2023-07-08T07:09:37;7.90;;;2.63;;
54430;SDS011;40342;52.998;5.862;2023-07-08T07:12:05;5.85;;;2.75;;
54430;SDS011;40342;52.998;5.862;2023-07-08T07:14:31;4.43;;;2.50;;
54430;SDS011;40342;52.998;5.862;2023-07-08T07:16:57;3.25;;;2.60;;
54430;SDS011;40342;52.998;5.862;2023-07-08T07:19:22;3.53;;;2.78;;
54430;SDS011;40342;52.998;5.862;2023-07-08T07:21:48;3.65;;;2.50;;
54430;SDS011;40342;52.998;5.862;2023-07-08T07:24:14;4.93;;;2.40;;
54430;SDS011;40342;52.998;5.862;2023-07-08T07:26:39;4.35;;;2.53;;
54430;SDS011;40342;52.998;5.862;2023-07-08T07:29:05;5.50;;;2.53;;
54430;SDS011;40342;52.998;5.862;2023-07-08T07:31:31;4.45;;;2.83;;
54430;SDS011;40342;52.998;5.862;2023-07-08T07:33:58;3.08;;;2.65;;
54430;SDS011;40342;52.998;5.862;2023-07-08T07:36:25;4.47;;;2.45;;
54430;SDS011;40342;52.998;5.862;2023-07-08T07:38:51;2.90;;;2.53;;
54430;SDS011;40342;52.998;5.862;2023-07-08T07:41:16;4.15;;;2.20;;
54430;SDS011;40342;52.998;5.862;2023-07-08T07:43:42;6.70;;;2.30;;
54430;SDS011;40342;52.998;5.862;2023-07-08T07:46:08;2.72;;;2.15;;
54430;SDS011;40342;52.998;5.862;2023-07-08T07:48:35;3.50;;;2.70;;
54430;SDS011;40342;52.998;5.862;2023-07-08T07:51:01;3.08;;;2.50;;
54430;SDS011;40342;52.998;5.862;2023-07-08T07:53:27;4.20;;;2.53;;
54430;SDS011;40342;52.998;5.862;2023-07-08T07:55:57;3.65;;;2.65;;
54430;SDS011;40342;52.998;5.862;2023-07-08T07:58:25;4.15;;;2.70;;
54430;SDS011;40342;52.998;5.862;2023-07-08T08:00:51;2.63;;;2.42;;
54430;SDS011;40342;52.998;5.862;2023-07-08T08:03:17;3.20;;;2.13;;
54430;SDS011;40342;52.998;5.862;2023-07-08T08:05:43;3.65;;;2.30;;
54430;SDS011;40342;52.998;5.862;2023-07-08T08:08:08;4.53;;;2.40;;
54430;SDS011;40342;52.998;5.862;2023-07-08T08:10:34;3.90;;;2.38;;
54430;SDS011;40342;52.998;5.862;2023-07-08T08:13:00;4.45;;;2.30;;
54430;SDS011;40342;52.998;5.862;2023-07-08T08:15:26;3.20;;;1.90;;
54430;SDS011;40342;52.998;5.862;2023-07-08T08:17:52;5.35;;;2.50;;
54430;SDS011;40342;52.998;5.862;2023-07-08T08:20:19;3.33;;;2.30;;
54430;SDS011;40342;52.998;5.862;2023-07-08T08:22:46;5.40;;;2.35;;
54430;SDS011;40342;52.998;5.862;2023-07-08T08:25:12;5.68;;;2.33;;
54430;SDS011;40342;52.998;5.862;2023-07-08T08:27:39;2.50;;;2.30;;
54430;SDS011;40342;52.998;5.862;2023-07-08T08:30:05;3.67;;;2.15;;
54430;SDS011;40342;52.998;5.862;2023-07-08T08:32:31;2.70;;;2.50;;
54430;SDS011;40342;52.998;5.862;2023-07-08T08:34:56;3.33;;;2.33;;
54430;SDS011;40342;52.998;5.862;2023-07-08T08:37:22;3.47;;;2.13;;
54430;SDS011;40342;52.998;5.862;2023-07-08T08:39:48;4.00;;;2.00;;
54430;SDS011;40342;52.998;5.862;2023-07-08T08:42:23;3.67;;;2.30;;
54430;SDS011;40342;52.998;5.862;2023-07-08T08:44:53;4.88;;;2.28;;
54430;SDS011;40342;52.998;5.862;2023-07-08T08:49:53;2.20;;;2.00;;
54430;SDS011;40342;52.998;5.862;2023-07-08T08:52:25;3.72;;;2.45;;
54430;SDS011;40342;52.998;5.862;2023-07-08T08:54:51;3.42;;;2.20;;
54430;SDS011;40342;52.998;5.862;2023-07-08T09:00:03;2.58;;;2.38;;
54430;SDS011;40342;52.998;5.862;2023-07-08T09:05:05;2.88;;;2.25;;
54430;SDS011;40342;52.998;5.862;2023-07-08T09:07:38;5.78;;;2.40;;
54430;SDS011;40342;52.998;5.862;2023-07-08T09:13:32;6.93;;;2.67;;
54430;SDS011;40342;52.998;5.862;2023-07-08T09:16:14;2.60;;;2.40;;
54430;SDS011;40342;52.998;5.862;2023-07-08T09:22:14;4.07;;;2.60;;
54430;SDS011;40342;52.998;5.862;2023-07-08T09:27:29;7.35;;;2.72;;
54430;SDS011;40342;52.998;5.862;2023-07-08T09:29:55;2.97;;;2.30;;
54430;SDS011;40342;52.998;5.862;2023-07-08T09:32:22;3.25;;;2.40;;
54430;SDS011;40342;52.998;5.862;2023-07-08T09:34:53;2.30;;;2.10;;
54430;SDS011;40342;52.998;5.862;2023-07-08T09:37:35;2.92;;;2.47;;
54430;SDS011;40342;52.998;5.862;2023-07-08T09:40:15;7.07;;;2.40;;
54430;SDS011;40342;52.998;5.862;2023-07-08T09:43:03;2.65;;;2.10;;
54430;SDS011;40342;52.998;5.862;2023-07-08T09:45:44;2.40;;;2.20;;
54430;SDS011;40342;52.998;5.862;2023-07-08T09:48:15;3.17;;;2.42;;
54430;SDS011;40342;52.998;5.862;2023-07-08T09:50:53;4.05;;;2.55;;
54430;SDS011;40342;52.998;5.862;2023-07-08T09:53:20;2.50;;;2.30;;
54430;SDS011;40342;52.998;5.862;2023-07-08T09:55:46;7.38;;;2.80;;
54430;SDS011;40342;52.998;5.862;2023-07-08T09:58:15;4.90;;;2.47;;
54430;SDS011;40342;52.998;5.862;2023-07-08T10:00:50;3.80;;;2.50;;
54430;SDS011;40342;52.998;5.862;2023-07-08T10:03:20;3.35;;;2.58;;
54430;SDS011;40342;52.998;5.862;2023-07-08T10:05:49;4.75;;;2.40;;
54430;SDS011;40342;52.998;5.862;2023-07-08T10:10:44;5.82;;;2.17;;
54430;SDS011;40342;52.998;5.862;2023-07-08T10:13:38;2.90;;;2.50;;
54430;SDS011;40342;52.998;5.862;2023-07-08T10:19:04;6.38;;;2.75;;
54430;SDS011;40342;52.998;5.862;2023-07-08T10:21:42;3.70;;;2.88;;
54430;SDS011;40342;52.998;5.862;2023-07-08T10:32:44;2.83;;;2.30;;
54430;SDS011;40342;52.998;5.862;2023-07-08T10:35:34;7.57;;;2.28;;
54430;SDS011;40342;52.998;5.862;2023-07-08T10:40:32;3.15;;;2.40;;
54430;SDS011;40342;52.998;5.862;2023-07-08T10:46:06;3.72;;;2.40;;
54430;SDS011;40342;52.998;5.862;2023-07-08T10:54:20;2.40;;;2.20;;
54430;SDS011;40342;52.998;5.862;2023-07-08T10:56:55;4.63;;;2.63;;
54430;SDS011;40342;52.998;5.862;2023-07-08T10:59:51;3.88;;;2.35;;
54430;SDS011;40342;52.998;5.862;2023-07-08T11:10:22;3.08;;;2.42;;
54430;SDS011;40342;52.998;5.862;2023-07-08T11:12:56;3.25;;;2.47;;
54430;SDS011;40342;52.998;5.862;2023-07-08T11:15:32;4.75;;;2.30;;
54430;SDS011;40342;52.998;5.862;2023-07-08T11:18:11;5.13;;;2.53;;
54430;SDS011;40342;52.998;5.862;2023-07-08T11:20:59;4.95;;;2.58;;
54430;SDS011;40342;52.998;5.862;2023-07-08T11:23:30;5.50;;;2.60;;
54430;SDS011;40342;52.998;5.862;2023-07-08T11:26:16;4.45;;;2.70;;
54430;SDS011;40342;52.998;5.862;2023-07-08T11:28:48;4.45;;;2.38;;
54430;SDS011;40342;52.998;5.862;2023-07-08T11:31:17;5.03;;;2.30;;
54430;SDS011;40342;52.998;5.862;2023-07-08T11:33:43;3.55;;;2.20;;
54430;SDS011;40342;52.998;5.862;2023-07-08T11:36:10;2.40;;;2.20;;
54430;SDS011;40342;52.998;5.862;2023-07-08T11:38:37;2.97;;;2.35;;
54430;SDS011;40342;52.998;5.862;2023-07-08T11:41:15;3.25;;;2.53;;
54430;SDS011;40342;52.998;5.862;2023-07-08T11:43:50;3.50;;;2.40;;
54430;SDS011;40342;52.998;5.862;2023-07-08T11:46:20;2.78;;;2.40;;
54430;SDS011;40342;52.998;5.862;2023-07-08T11:48:51;2.90;;;2.20;;
54430;SDS011;40342;52.998;5.862;2023-07-08T11:51:25;2.42;;;2.22;;
54430;SDS011;40342;52.998;5.862;2023-07-08T11:54:01;2.67;;;2.47;;
54430;SDS011;40342;52.998;5.862;2023-07-08T11:56:50;4.55;;;2.55;;
54430;SDS011;40342;52.998;5.862;2023-07-08T11:59:26;3.03;;;2.20;;
54430;SDS011;40342;52.998;5.862;2023-07-08T12:02:03;4.18;;;2.13;;
54430;SDS011;40342;52.998;5.862;2023-07-08T12:04:51;3.05;;;2.25;;
54430;SDS011;40342;52.998;5.862;2023-07-08T12:07:40;4.57;;;2.23;;
54430;SDS011;40342;52.998;5.862;2023-07-08T12:10:17;2.60;;;2.40;;
54430;SDS011;40342;52.998;5.862;2023-07-08T12:12:56;3.80;;;2.42;;
54430;SDS011;40342;52.998;5.862;2023-07-08T12:17:50;3.20;;;2.33;;
54430;SDS011;40342;52.998;5.862;2023-07-08T12:20:22;4.22;;;2.67;;
54430;SDS011;40342;52.998;5.862;2023-07-08T12:22:50;2.55;;;2.30;;
54430;SDS011;40342;52.998;5.862;2023-07-08T12:25:17;2.47;;;2.28;;
54430;SDS011;40342;52.998;5.862;2023-07-08T12:27:45;3.78;;;2.30;;
54430;SDS011;40342;52.998;5.862;2023-07-08T12:30:11;3.58;;;2.40;;
54430;SDS011;40342;52.998;5.862;2023-07-08T12:32:42;2.75;;;2.55;;
54430;SDS011;40342;52.998;5.862;2023-07-08T12:35:26;4.57;;;2.60;;
54430;SDS011;40342;52.998;5.862;2023-07-08T12:37:59;2.40;;;2.20;;
54430;SDS011;40342;52.998;5.862;2023-07-08T12:40:28;6.80;;;2.42;;
54430;SDS011;40342;52.998;5.862;2023-07-08T12:42:58;3.22;;;2.80;;
54430;SDS011;40342;52.998;5.862;2023-07-08T12:45:25;2.85;;;2.65;;
54430;SDS011;40342;52.998;5.862;2023-07-08T12:47:53;2.92;;;2.70;;
54430;SDS011;40342;52.998;5.862;2023-07-08T12:50:18;6.15;;;3.08;;
54430;SDS011;40342;52.998;5.862;2023-07-08T12:52:44;5.32;;;3.10;;
54430;SDS011;40342;52.998;5.862;2023-07-08T12:55:11;4.50;;;2.28;;
54430;SDS011;40342;52.998;5.862;2023-07-08T12:57:40;4.13;;;2.63;;
54430;SDS011;40342;52.998;5.862;2023-07-08T13:00:27;4.78;;;2.70;;
54430;SDS011;40342;52.998;5.862;2023-07-08T13:03:01;2.90;;;2.60;;
54430;SDS011;40342;52.998;5.862;2023-07-08T13:05:30;3.55;;;2.85;;
54430;SDS011;40342;52.998;5.862;2023-07-08T13:07:56;3.20;;;2.85;;
54430;SDS011;40342;52.998;5.862;2023-07-08T13:10:23;3.20;;;3.00;;
54430;SDS011;40342;52.998;5.862;2023-07-08T13:12:51;4.57;;;3.20;;
54430;SDS011;40342;52.998;5.862;2023-07-08T13:15:23;3.78;;;3.10;;
54430;SDS011;40342;52.998;5.862;2023-07-08T13:17:52;4.88;;;2.80;;
54430;SDS011;40342;52.998;5.862;2023-07-08T13:20:18;4.10;;;3.70;;
54430;SDS011;40342;52.998;5.862;2023-07-08T13:22:48;5.28;;;3.30;;
54430;SDS011;40342;52.998;5.862;2023-07-08T13:25:17;5.78;;;3.22;;
54430;SDS011;40342;52.998;5.862;2023-07-08T13:27:53;3.35;;;3.10;;
54430;SDS011;40342;52.998;5.862;2023-07-08T13:30:21;4.07;;;3.33;;
54430;SDS011;40342;52.998;5.862;2023-07-08T13:32:59;3.83;;;3.33;;
54430;SDS011;40342;52.998;5.862;2023-07-08T13:35:34;5.82;;;3.40;;
54430;SDS011;40342;52.998;5.862;2023-07-08T13:38:02;4.03;;;3.38;;
54430;SDS011;40342;52.998;5.862;2023-07-08T13:40:28;4.47;;;3.13;;
54430;SDS011;40342;52.998;5.862;2023-07-08T13:42:56;5.72;;;3.30;;
54430;SDS011;40342;52.998;5.862;2023-07-08T13:45:26;4.90;;;3.70;;
54430;SDS011;40342;52.998;5.862;2023-07-08T13:48:03;6.32;;;3.85;;
54430;SDS011;40342;52.998;5.862;2023-07-08T13:50:48;4.05;;;3.42;;
54430;SDS011;40342;52.998;5.862;2023-07-08T13:53:26;3.80;;;3.50;;
54430;SDS011;40342;52.998;5.862;2023-07-08T13:59:04;3.97;;;3.42;;
54430;SDS011;40342;52.998;5.862;2023-07-08T14:01:32;9.35;;;3.55;;
54430;SDS011;40342;52.998;5.862;2023-07-08T14:04:01;4.72;;;3.60;;
54430;SDS011;40342;52.998;5.862;2023-07-08T14:06:35;11.95;;;4.47;;
54430;SDS011;40342;52.998;5.862;2023-07-08T14:09:12;4.28;;;3.70;;
54430;SDS011;40342;52.998;5.862;2023-07-08T14:11:41;4.10;;;3.70;;
54430;SDS011;40342;52.998;5.862;2023-07-08T14:14:08;4.30;;;3.90;;
54430;SDS011;40342;52.998;5.862;2023-07-08T14:16:35;4.10;;;3.55;;
54430;SDS011;40342;52.998;5.862;2023-07-08T14:19:04;4.75;;;4.13;;
54430;SDS011;40342;52.998;5.862;2023-07-08T14:21:33;4.20;;;3.80;;
54430;SDS011;40342;52.998;5.862;2023-07-08T14:24:00;5.90;;;4.15;;
54430;SDS011;40342;52.998;5.862;2023-07-08T14:26:27;4.68;;;3.67;;
54430;SDS011;40342;52.998;5.862;2023-07-08T14:28:54;4.25;;;3.85;;
54430;SDS011;40342;52.998;5.862;2023-07-08T14:31:24;3.88;;;3.50;;
54430;SDS011;40342;52.998;5.862;2023-07-08T14:33:52;4.63;;;3.60;;
54430;SDS011;40342;52.998;5.862;2023-07-08T14:36:26;4.53;;;3.67;;
54430;SDS011;40342;52.998;5.862;2023-07-08T14:38:52;3.85;;;3.45;;
54430;SDS011;40342;52.998;5.862;2023-07-08T14:41:18;4.50;;;4.07;;
54430;SDS011;40342;52.998;5.862;2023-07-08T14:43:43;7.90;;;3.75;;
54430;SDS011;40342;52.998;5.862;2023-07-08T14:46:09;6.20;;;3.78;;
54430;SDS011;40342;52.998;5.862;2023-07-08T14:48:35;6.03;;;3.90;;
54430;SDS011;40342;52.998;5.862;2023-07-08T14:51:01;3.97;;;3.67;;
54430;SDS011;40342;52.998;5.862;2023-07-08T14:53:27;4.95;;;4.00;;
54430;SDS011;40342;52.998;5.862;2023-07-08T14:55:53;4.22;;;3.85;;
54430;SDS011;40342;52.998;5.862;2023-07-08T14:58:21;4.82;;;3.50;;
54430;SDS011;40342;52.998;5.862;2023-07-08T15:00:48;4.35;;;3.95;;
54430;SDS011;40342;52.998;5.862;2023-07-08T15:03:14;4.55;;;4.05;;
54430;SDS011;40342;52.998;5.862;2023-07-08T15:05:40;5.13;;;4.57;;
54430;SDS011;40342;52.998;5.862;2023-07-08T15:08:07;8.23;;;4.47;;
54430;SDS011;40342;52.998;5.862;2023-07-08T15:10:32;4.55;;;4.07;;
54430;SDS011;40342;52.998;5.862;2023-07-08T15:13:00;4.78;;;3.72;;
54430;SDS011;40342;52.998;5.862;2023-07-08T15:15:29;6.95;;;4.03;;
54430;SDS011;40342;52.998;5.862;2023-07-08T15:17:59;9.18;;;3.85;;
54430;SDS011;40342;52.998;5.862;2023-07-08T15:20:27;4.40;;;4.00;;
54430;SDS011;40342;52.998;5.862;2023-07-08T15:22:53;4.38;;;3.97;;
54430;SDS011;40342;52.998;5.862;2023-07-08T15:25:18;4.53;;;3.80;;
54430;SDS011;40342;52.998;5.862;2023-07-08T15:27:45;4.25;;;3.83;;
54430;SDS011;40342;52.998;5.862;2023-07-08T15:30:21;4.80;;;3.92;;
54430;SDS011;40342;52.998;5.862;2023-07-08T15:32:52;7.32;;;3.97;;
54430;SDS011;40342;52.998;5.862;2023-07-08T15:35:20;4.82;;;4.07;;
54430;SDS011;40342;52.998;5.862;2023-07-08T15:37:51;11.85;;;3.83;;
54430;SDS011;40342;52.998;5.862;2023-07-08T15:40:17;7.60;;;4.32;;
54430;SDS011;40342;52.998;5.862;2023-07-08T15:42:45;4.50;;;4.00;;
54430;SDS011;40342;52.998;5.862;2023-07-08T15:45:18;5.38;;;4.30;;
54430;SDS011;40342;52.998;5.862;2023-07-08T15:47:50;5.75;;;4.00;;
54430;SDS011;40342;52.998;5.862;2023-07-08T15:50:17;4.53;;;3.90;;
54430;SDS011;40342;52.998;5.862;2023-07-08T15:52:45;7.07;;;4.20;;
54430;SDS011;40342;52.998;5.862;2023-07-08T15:55:13;5.70;;;3.95;;
54430;SDS011;40342;52.998;5.862;2023-07-08T15:57:43;4.13;;;3.72;;
54430;SDS011;40342;52.998;5.862;2023-07-08T16:00:15;5.53;;;4.45;;
54430;SDS011;40342;52.998;5.862;2023-07-08T16:02:51;6.45;;;4.20;;